Aguilares, Texas
Current Conditions -  °F | °C
As of 8:15 AM on Friday 31 Oct 2014 (Local Time) from KHBV Reporting Station
Thunderstorm Thunderstorm  
Wind Chill: 64°   Ceiling: 3700
Heat Index: 64°   Visibility: 5mi
Dew Point: 63°   Wind: 14mph
Humidity: 97%   Direction: 10°N
Pressure: 30.21"   Gusts: 26mph
Location:  27.4459°N, 99.0184°W
Report Text: KHBV 311315Z AUTO 01012G23KT 5SM TS SCT009 SCT018 BKN037 18/17 A3021 RMK AO2 LTG DSNT NW THRU NE P0002 T01770172
Loading
Personal Weather Stations






























Interactive Weather Map
Tropical Storm Tracking
New forecast layout! Learn more

10-Day Weather Forecast

Advertisements
Track Severe Weather on mobile